Kansas City International Airport
KMCI : now visible

Airfield :











YOU CAN JOIN US ON...

 
LOGIN :

Register | Disclaimer

   EN    FR    IT 

 









Legend :    VFR   Marginal VFR   IFR   Intensive IFR   Very Intensive IFR
Visi :
Ceiling :
>= 8 km
>= 3000ft
5 to 8 km
1000 to 3000 ft
1500m to 5 km
500 to 1000 ft
800 to 1500m
200 to 500 ft
< 800m
< 200 ft
Symbols :   Thunderstorms  Fog  Heavy snow  Heavy precipitations  Wind > 20 kt







- Airport Elevation : 1026 ft
- IATA code : MCI


KMCI - Kansas City International

CURRENT METAR :
  • 260453Z 33003KT 10SM OVC005 19/19 A2982 RMK AO2 SLP089 T01940189

EXPIRED METARs :
  • 260353Z 36004KT 10SM OVC007 19/19 A2984 RMK AO2 SLP097 T01940189
  • 260253Z 03007KT 10SM OVC007 19/19 A2985 RMK AO2 SLP099 T01940189 53011

TAF KMCI
Valid from the 26 at 00:00 until the 27 at 00:00 UTC


252334Z 2600/2624 02007KT P6SM OVC008
FM260300 VRB06KT 4SM BR OVC004
TEMPO 2609/2613 1/2SM FG OVC002
FM261300 15010KT 1SM BR VCTS OVC004CB
FM261700 18010KT 4SM BR OVC008
FM262000 25010KT 5SM -TSRA BR OVC012CB
No reported NOTAMs for that airfield.



MET'MAP, your aeronautical weather chart ! - Copyright ORBIFLY December 2007 - Disclaimer

ORBIFLY MET'MAP TEAM :

Programming & Development : Alexandra Zaïnal
Concept & Development : Baudouin d'Aumeries
Co-Development & Prog : Marc-Olivier Méhu
Technical & hardware support : Manuel Goepfert

Contact : metmap@orbifly.com




SOURCES & CREDITS :

   NOAA       Earth
Advisory